Time;durP1;ratioP1;P1;durP2;ratioP2;P2;SDS_P1;SDS_P2;PMS_P1;PMS_P2;Temp;Humidity;BMP_temperature;BMP_pressure;BME280_temperature;BME280_humidity;BME280_pressure;Samples;Min_cycle;Max_cycle;Signal;HPM_P1;HPM_P2
2023/04/03 00:02:26;;;;;;;15.13;13.53;;;;;;;2.82;100.00;96827.69;5014242;28;102362;-63
2023/04/03 00:05:01;;;;;;;16.83;14.63;;;;;;;2.87;100.00;96828.75;5010844;28;105061;-63
2023/04/03 00:07:28;;;;;;;15.77;14.13;;;;;;;3.00;100.00;96830.66;5013521;28;105231;-63
2023/04/03 00:09:55;;;;;;;16.33;14.30;;;;;;;2.91;100.00;96827.38;5021717;28;105354;-63
2023/04/03 00:12:22;;;;;;;16.70;14.90;;;;;;;2.92;100.00;96825.56;5010030;28;105986;-63
2023/04/03 00:15:06;;;;;;;15.70;14.03;;;;;;;2.98;100.00;96828.22;5025512;28;101932;-63
2023/04/03 00:17:32;;;;;;;16.87;15.07;;;;;;;3.09;100.00;96829.50;5029537;28;105179;-63
2023/04/03 00:19:59;;;;;;;17.10;15.30;;;;;;;2.99;100.00;96821.13;5012791;28;105201;-63
2023/04/03 00:22:28;;;;;;;15.87;14.17;;;;;;;2.94;100.00;96826.16;5011810;28;101925;-63
2023/04/03 00:25:35;;;;;;;16.77;15.07;;;;;;;2.91;100.00;96826.56;5010541;28;103992;-63
2023/04/03 00:28:04;;;;;;;17.17;15.40;;;;;;;2.86;100.00;96823.69;5023527;28;105578;-63
2023/04/03 00:30:32;;;;;;;16.70;15.00;;;;;;;2.82;100.00;96827.69;5013704;28;101904;-63
2023/04/03 00:36:46;;;;;;;17.43;15.63;;;;;;;2.86;100.00;96826.31;5014444;28;101699;-63
2023/04/03 00:39:13;;;;;;;17.20;15.40;;;;;;;2.85;100.00;96827.31;5021148;28;105824;-62
2023/04/03 00:41:40;;;;;;;17.97;15.13;;;;;;;2.78;100.00;96827.28;5008543;28;103682;-63
2023/04/03 00:44:49;;;;;;;17.20;15.30;;;;;;;2.76;100.00;96825.84;5010263;28;103275;-63
2023/04/03 00:47:19;;;;;;;17.90;15.70;;;;;;;2.79;100.00;96828.09;5010243;28;105672;-63
2023/04/03 00:49:46;;;;;;;17.60;15.50;;;;;;;2.77;100.00;96835.34;5022081;28;105729;-63
2023/04/03 00:52:18;;;;;;;17.83;15.93;;;;;;;2.73;100.00;96831.50;5029718;28;101998;-63
2023/04/03 00:54:47;;;;;;;19.43;16.07;;;;;;;2.69;100.00;96827.63;5033008;28;105309;-63
2023/04/03 00:57:15;;;;;;;20.40;16.10;;;;;;;2.71;100.00;96825.59;5029765;28;101978;-63
2023/04/03 00:59:46;;;;;;;19.57;16.00;;;;;;;2.66;100.00;96827.97;5017486;28;105486;-63
2023/04/03 01:02:13;;;;;;;20.10;16.00;;;;;;;2.69;100.00;96832.88;5009169;28;105669;-63
2023/04/03 01:04:44;;;;;;;18.37;15.93;;;;;;;2.64;100.00;96830.00;5009786;28;102234;-63
2023/04/03 01:07:15;;;;;;;17.17;15.37;;;;;;;2.65;100.00;96831.63;5010862;28;104775;-63
2023/04/03 01:09:43;;;;;;;17.37;15.30;;;;;;;2.68;100.00;96839.13;5022587;28;102486;-63
2023/04/03 01:12:17;;;;;;;17.27;15.20;;;;;;;2.73;100.00;96834.13;5029828;28;101748;-63
2023/04/03 01:14:47;;;;;;;16.50;14.80;;;;;;;2.76;100.00;96831.09;5029253;28;104845;-63
2023/04/03 01:17:32;;;;;;;17.23;14.93;;;;;;;2.69;100.00;96832.88;5032734;28;105957;-63
2023/04/03 01:20:26;;;;;;;17.57;14.63;;;;;;;2.67;100.00;96834.88;5027392;28;104848;-63
2023/04/03 01:23:26;;;;;;;17.50;15.17;;;;;;;2.66;100.00;96827.97;4988950;28;105444;-62
2023/04/03 01:25:55;;;;;;;17.47;14.57;;;;;;;2.72;100.00;96837.72;5023241;28;101704;-63
2023/04/03 01:28:24;;;;;;;16.90;14.17;;;;;;;2.72;100.00;96838.53;4992008;28;105497;-63
2023/04/03 01:31:00;;;;;;;15.97;14.27;;;;;;;2.72;100.00;96843.78;5063013;27;103857;-63
2023/04/03 01:33:32;;;;;;;17.43;14.80;;;;;;;2.71;100.00;96842.19;5028073;28;102167;-63
2023/04/03 01:35:58;;;;;;;16.80;14.00;;;;;;;2.75;100.00;96838.19;5028116;28;104997;-63
2023/04/03 01:38:26;;;;;;;17.63;15.17;;;;;;;2.80;100.00;96845.47;5064572;27;105009;-62
2023/04/03 01:40:53;;;;;;;16.37;14.20;;;;;;;2.71;100.00;96836.94;5029400;28;104912;-62
2023/04/03 01:43:22;;;;;;;16.40;14.70;;;;;;;2.73;100.00;96842.78;5028285;28;105295;-63
2023/04/03 01:45:49;;;;;;;14.10;12.70;;;;;;;2.72;100.00;96848.22;5010060;28;103576;-63
2023/04/03 01:48:17;;;;;;;15.93;14.17;;;;;;;2.75;100.00;96846.06;5009106;28;103536;-63
2023/04/03 01:50:45;;;;;;;16.40;13.50;;;;;;;2.69;100.00;96840.75;5008616;28;105624;-63
2023/04/03 01:53:26;;;;;;;16.50;13.63;;;;;;;2.66;100.00;96839.31;5014269;28;101898;-63
2023/04/03 01:55:54;;;;;;;14.57;13.03;;;;;;;2.64;100.00;96843.94;5009605;28;104846;-63
2023/04/03 01:58:21;;;;;;;15.77;13.33;;;;;;;2.63;100.00;96850.19;5008483;28;105439;-63
2023/04/03 02:00:49;;;;;;;13.63;12.23;;;;;;;2.66;100.00;96843.72;5012407;28;101876;-63
2023/04/03 02:03:21;;;;;;;14.27;12.03;;;;;;;2.66;100.00;96843.72;5021839;28;105178;-63
2023/04/03 02:05:50;;;;;;;13.00;11.53;;;;;;;2.64;100.00;96843.13;5028479;28;102014;-63
2023/04/03 02:08:18;;;;;;;13.07;11.67;;;;;;;2.62;100.00;96838.06;5028552;28;105188;-63
2023/04/03 02:10:45;;;;;;;13.07;11.07;;;;;;;2.61;100.00;96841.69;5014202;28;105109;-63
2023/04/03 02:13:38;;;;;;;13.53;12.10;;;;;;;2.61;100.00;96841.69;5008955;28;103712;-63
2023/04/03 02:16:09;;;;;;;13.00;11.70;;;;;;;2.60;100.00;96834.81;4988773;28;104751;-63
2023/04/03 02:18:37;;;;;;;12.83;11.40;;;;;;;2.64;100.00;96840.50;5006657;28;102512;-63
2023/04/03 02:21:06;;;;;;;13.93;11.77;;;;;;;2.67;100.00;96840.13;5026925;28;101823;-63
2023/04/03 02:24:06;;;;;;;12.37;11.07;;;;;;;2.71;100.00;96846.59;5031130;28;104791;-63
2023/04/03 02:26:34;;;;;;;14.37;11.90;;;;;;;2.61;100.00;96841.69;4988586;28;101806;-63
2023/04/03 02:29:01;;;;;;;12.90;11.23;;;;;;;2.66;100.00;96836.69;4996478;28;104865;-63
2023/04/03 02:31:28;;;;;;;12.23;10.97;;;;;;;2.50;100.00;96844.00;5008080;28;105730;-63
2023/04/03 02:37:24;;;;;;;12.37;11.07;;;;;;;2.49;100.00;96842.38;5028158;28;105362;-63
2023/04/03 02:39:53;;;;;;;11.97;10.70;;;;;;;2.53;100.00;96839.22;5014682;28;105551;-63
2023/04/03 02:42:20;;;;;;;13.37;10.97;;;;;;;2.52;100.00;96848.06;5009400;28;101857;-63
2023/04/03 02:45:19;;;;;;;12.80;11.47;;;;;;;2.62;100.00;96840.69;5008270;28;103724;-63
2023/04/03 02:47:46;;;;;;;12.90;11.47;;;;;;;2.54;100.00;96845.25;5020710;28;105702;-63
2023/04/03 02:50:13;;;;;;;13.20;11.80;;;;;;;2.62;100.00;96838.06;5012468;28;105081;-63
2023/04/03 02:52:41;;;;;;;14.97;11.23;;;;;;;2.68;100.00;96839.13;5015831;28;105082;-63
2023/04/03 02:55:09;;;;;;;12.97;11.27;;;;;;;2.66;100.00;96841.09;5028391;28;101835;-63
2023/04/03 02:57:36;;;;;;;13.03;11.73;;;;;;;2.65;100.00;96842.13;5027708;28;104791;-63
2023/04/03 03:00:03;;;;;;;14.80;12.20;;;;;;;2.58;100.00;96851.75;5027422;28;105294;-63
2023/04/03 03:02:30;;;;;;;15.33;11.53;;;;;;;2.57;100.00;96852.75;5054761;27;102122;-62
2023/04/03 03:05:00;;;;;;;13.70;12.07;;;;;;;2.61;100.00;96846.94;5043131;27;105260;-63
2023/04/03 03:07:27;;;;;;;14.80;12.50;;;;;;;2.63;100.00;96838.88;5012513;28;102738;-63
2023/04/03 03:09:55;;;;;;;14.73;12.17;;;;;;;2.61;100.00;96851.38;5016410;28;101687;-63
2023/04/03 03:12:24;;;;;;;15.10;13.00;;;;;;;2.54;100.00;96851.34;5016719;28;103737;-63
2023/04/03 03:14:59;;;;;;;16.67;13.00;;;;;;;2.59;100.00;96853.38;5031608;28;101884;-63
2023/04/03 03:17:26;;;;;;;14.70;13.20;;;;;;;2.60;100.00;96850.56;5031451;28;104056;-63
2023/04/03 03:19:53;;;;;;;13.17;11.77;;;;;;;2.57;100.00;96845.69;5019406;28;103203;-63
2023/04/03 03:22:19;;;;;;;14.77;13.17;;;;;;;2.58;100.00;96851.75;5016584;28;101903;-63
2023/04/03 03:25:08;;;;;;;14.57;12.87;;;;;;;2.65;100.00;96842.13;5030983;28;104820;-63
2023/04/03 03:27:37;;;;;;;15.10;12.93;;;;;;;2.64;100.00;96843.94;5010847;28;105062;-63
2023/04/03 03:30:06;;;;;;;14.87;11.90;;;;;;;2.58;100.00;96847.31;5011281;28;101884;-63
2023/04/03 03:32:33;;;;;;;14.60;12.37;;;;;;;2.55;100.00;96846.88;5015340;28;104826;-63
2023/04/03 03:35:02;;;;;;;14.77;13.03;;;;;;;2.62;100.00;96839.88;5011160;28;101968;-62
2023/04/03 03:37:29;;;;;;;13.57;12.17;;;;;;;2.65;100.00;96847.38;5012277;28;105171;-63
2023/04/03 03:39:56;;;;;;;14.40;12.43;;;;;;;2.57;100.00;96847.50;5010767;28;104987;-63
2023/04/03 03:42:25;;;;;;;16.03;13.33;;;;;;;2.58;100.00;96846.50;5012019;28;101967;-63
2023/04/03 03:44:54;;;;;;;16.53;12.60;;;;;;;2.57;100.00;96847.50;5011015;28;105530;-63
2023/04/03 03:47:21;;;;;;;13.63;12.17;;;;;;;2.61;100.00;96841.69;5010627;28;105911;-63
2023/04/03 03:49:47;;;;;;;12.77;11.37;;;;;;;2.67;100.00;96840.13;5011170;28;101915;-63
2023/04/03 03:52:15;;;;;;;14.13;12.03;;;;;;;2.73;100.00;96849.88;5020887;28;104615;-63
2023/04/03 03:55:11;;;;;;;13.17;11.70;;;;;;;2.77;100.00;96849.28;5031095;28;101903;-63
2023/04/03 03:57:39;;;;;;;13.30;11.90;;;;;;;2.72;100.00;96843.78;5020591;28;103984;-63
2023/04/03 04:00:08;;;;;;;13.80;12.13;;;;;;;2.75;100.00;96853.09;5010214;28;105141;-63
2023/04/03 04:03:30;;;;;;;15.70;11.90;;;;;;;2.66;100.00;96848.97;5010207;28;101823;-63
2023/04/03 04:05:57;;;;;;;12.60;11.23;;;;;;;2.64;100.00;96853.63;5010907;28;105238;-62
2023/04/03 04:08:25;;;;;;;13.53;11.33;;;;;;;2.62;100.00;96848.56;5022842;28;105301;-63
2023/04/03 04:10:52;;;;;;;14.37;12.30;;;;;;;2.66;100.00;96844.56;5013214;28;102012;-63
2023/04/03 04:13:38;;;;;;;14.10;11.87;;;;;;;2.73;100.00;96845.41;4990716;28;105451;-63
2023/04/03 04:16:07;;;;;;;14.77;11.93;;;;;;;2.77;100.00;96848.47;5013397;28;105457;-63
2023/04/03 04:18:34;;;;;;;13.70;12.20;;;;;;;2.79;100.00;96849.09;5010521;28;103727;-63
2023/04/03 04:21:01;;;;;;;13.83;11.80;;;;;;;2.78;100.00;96842.22;5022088;28;105040;-62
2023/04/03 04:23:52;;;;;;;13.97;12.17;;;;;;;2.79;100.00;96843.84;5030478;28;101774;-63
2023/04/03 04:26:20;;;;;;;13.63;11.67;;;;;;;2.70;100.00;96845.81;5011359;28;105356;-63
2023/04/03 04:28:49;;;;;;;12.23;10.93;;;;;;;2.71;100.00;96841.34;5009811;28;103743;-63
2023/04/03 04:31:18;;;;;;;11.60;10.50;;;;;;;2.74;100.00;96846.22;5018293;28;102005;-63
2023/04/03 04:33:46;;;;;;;11.23;10.13;;;;;;;2.72;100.00;96845.59;5010411;28;103758;-63
2023/04/03 04:36:15;;;;;;;11.50;10.00;;;;;;;2.75;100.00;96848.69;5029597;28;105015;-63
2023/04/03 04:38:45;;;;;;;12.83;10.73;;;;;;;2.75;100.00;96853.94;5033707;28;101850;-63
2023/04/03 04:41:13;;;;;;;11.40;10.20;;;;;;;2.70;100.00;96844.97;5020685;28;105124;-63
2023/04/03 04:47:08;;;;;;;11.60;10.07;;;;;;;2.73;100.00;96848.03;5028318;28;105214;-63
2023/04/03 04:49:35;;;;;;;12.37;10.43;;;;;;;2.82;100.00;96846.91;5009521;28;105057;-63
2023/04/03 04:52:02;;;;;;;13.90;10.30;;;;;;;2.81;100.00;96857.59;5011331;28;102246;-63
2023/04/03 04:57:59;;;;;;;12.07;10.17;;;;;;;2.76;100.00;96852.91;5027912;28;105218;-63
2023/04/03 05:00:27;;;;;;;10.60;9.50;;;;;;;2.85;100.00;96856.22;5029733;28;101997;-63
2023/04/03 05:02:56;;;;;;;10.97;9.83;;;;;;;2.79;100.00;96851.72;5033532;28;105369;-63
2023/04/03 05:05:23;;;;;;;10.60;9.50;;;;;;;2.79;100.00;96854.34;5016104;28;101849;-63
2023/04/03 05:07:50;;;;;;;10.83;9.53;;;;;;;2.68;100.00;96854.88;5018149;28;105123;-63
2023/04/03 05:10:17;;;;;;;10.37;9.33;;;;;;;2.74;100.00;96867.25;5029545;28;104864;-63
2023/04/03 05:12:45;;;;;;;11.07;9.80;;;;;;;2.80;100.00;96863.84;5027614;28;102326;-63
2023/04/03 05:15:12;;;;;;;10.47;9.37;;;;;;;2.69;100.00;96859.13;5030803;28;105523;-63
2023/04/03 05:17:39;;;;;;;9.90;8.90;;;;;;;2.55;100.00;96867.88;5030106;28;104178;-63
2023/04/03 05:20:13;;;;;;;10.70;9.10;;;;;;;2.65;100.00;96869.19;5019964;28;102050;-63
2023/04/03 05:22:41;;;;;;;10.63;9.53;;;;;;;2.65;100.00;96874.44;5010590;28;104860;-62
2023/04/03 05:25:10;;;;;;;10.57;9.47;;;;;;;2.73;100.00;96869.03;5009905;28;104915;-63
2023/04/03 05:27:38;;;;;;;10.20;9.20;;;;;;;2.59;100.00;96871.75;4989903;28;104583;-63
2023/04/03 05:30:07;;;;;;;10.90;9.60;;;;;;;2.65;100.00;96871.81;5020767;28;105226;-63
2023/04/03 05:32:35;;;;;;;9.47;8.57;;;;;;;2.63;100.00;96870.38;5011577;28;102072;-63
2023/04/03 05:35:32;;;;;;;8.67;7.87;;;;;;;2.64;100.00;96878.09;5010403;28;104688;-61
2023/04/03 05:38:02;;;;;;;9.37;8.47;;;;;;;2.72;100.00;96879.72;5009450;28;105201;-62
2023/04/03 05:40:29;;;;;;;11.27;8.87;;;;;;;2.79;100.00;96881.41;5021269;28;101973;-63
2023/04/03 05:46:22;;;;;;;8.77;7.87;;;;;;;2.75;100.00;96884.63;5010589;28;104340;-63
2023/04/03 05:48:53;;;;;;;8.27;7.40;;;;;;;2.68;100.00;96889.81;5014009;28;101736;-63
2023/04/03 05:51:26;;;;;;;9.63;8.13;;;;;;;2.65;100.00;96879.69;5010630;28;105457;-63
2023/04/03 05:54:36;;;;;;;9.00;8.20;;;;;;;2.78;100.00;96885.03;5010349;28;101813;-63
2023/04/03 05:57:11;;;;;;;9.27;8.37;;;;;;;2.88;100.00;96892.59;4990087;28;104850;-63
2023/04/03 05:59:39;;;;;;;8.53;7.50;;;;;;;2.92;100.00;96885.97;5031045;27;104946;-61
2023/04/03 06:02:06;;;;;;;9.63;8.63;;;;;;;2.94;100.00;96889.19;5008723;28;102069;-64
2023/04/03 06:04:35;;;;;;;9.53;8.33;;;;;;;3.08;100.00;96885.69;5043125;27;105270;-64
2023/04/03 06:07:03;;;;;;;9.20;8.30;;;;;;;3.09;100.00;96888.13;5004988;28;105128;-65
2023/04/03 06:09:30;;;;;;;9.43;8.43;;;;;;;3.09;100.00;96885.50;5010492;28;102180;-65
2023/04/03 06:11:58;;;;;;;8.97;8.17;;;;;;;3.00;100.00;96884.00;5007863;28;105523;-64
2023/04/03 06:14:26;;;;;;;9.20;8.30;;;;;;;3.09;100.00;96888.13;5008259;28;102195;-64
2023/04/03 06:16:53;;;;;;;8.60;7.80;;;;;;;3.12;100.00;96889.56;5008297;28;105474;-64
2023/04/03 06:19:21;;;;;;;7.93;7.23;;;;;;;3.10;100.00;96888.91;5010181;28;102453;-64
2023/04/03 06:21:51;;;;;;;7.63;6.87;;;;;;;3.14;100.00;96890.16;5009427;28;102204;-63
2023/04/03 06:24:23;;;;;;;7.90;7.10;;;;;;;3.21;100.00;96897.09;5009345;28;105768;-63
2023/04/03 06:26:52;;;;;;;7.67;7.00;;;;;;;3.13;100.00;96893.81;5009035;28;105302;-65
2023/04/03 06:29:19;;;;;;;7.80;7.10;;;;;;;3.18;100.00;96894.03;5009518;28;101853;-65
2023/04/03 06:31:46;;;;;;;8.10;7.33;;;;;;;3.16;100.00;96896.06;5012280;28;104891;-64
2023/04/03 06:34:16;;;;;;;7.43;6.73;;;;;;;3.18;100.00;96894.03;4989190;28;102134;-63
2023/04/03 06:36:44;;;;;;;7.60;6.90;;;;;;;3.23;100.00;96892.44;5026997;27;105935;-62
2023/04/03 06:39:14;;;;;;;6.90;6.30;;;;;;;3.28;100.00;96899.78;5020274;27;105218;-63
2023/04/03 06:41:44;;;;;;;7.00;6.30;;;;;;;3.39;100.00;96901.84;5045621;27;101855;-63
2023/04/03 06:44:33;;;;;;;6.50;5.90;;;;;;;3.50;100.00;96898.69;5014184;28;105238;-64
2023/04/03 06:47:00;;;;;;;6.87;6.27;;;;;;;3.60;100.00;96902.56;5019411;28;105345;-65
2023/04/03 06:49:27;;;;;;;7.07;6.33;;;;;;;3.66;100.00;96901.00;5010420;28;101902;-65
2023/04/03 06:51:54;;;;;;;6.90;6.30;;;;;;;3.58;100.00;96904.59;5009035;28;103880;-64
2023/04/03 06:58:10;;;;;;;6.20;5.53;;;;;;;3.76;100.00;96909.34;5022552;28;102040;-64
2023/04/03 07:00:37;;;;;;;6.43;5.83;;;;;;;3.87;100.00;96909.59;5026602;28;105035;-65
2023/04/03 07:03:17;;;;;;;6.53;5.87;;;;;;;3.99;100.00;96912.47;5018777;28;102010;-64
2023/04/03 07:05:45;;;;;;;6.13;5.53;;;;;;;3.92;100.00;96912.44;5042682;27;105320;-65
2023/04/03 07:08:13;;;;;;;5.73;5.23;;;;;;;4.08;100.00;96914.72;5009430;28;105122;-62
2023/04/03 07:10:40;;;;;;;6.33;5.43;;;;;;;4.00;100.00;96909.66;5012522;28;102180;-66
2023/04/03 07:13:36;;;;;;;5.60;5.10;;;;;;;4.10;100.00;96914.53;5010833;28;104929;-62
2023/04/03 07:16:04;;;;;;;5.87;5.20;;;;;;;4.10;100.00;96914.53;5021352;28;103081;-61
2023/04/03 07:18:31;;;;;;;5.37;4.80;;;;;;;4.13;100.00;96917.59;5032526;28;101837;-61
2023/04/03 07:21:13;;;;;;;7.37;5.07;;;;;;;4.09;100.00;96918.97;5019670;28;105721;-63
2023/04/03 07:27:08;;;;;;;5.17;4.67;;;;;;;4.42;100.00;96925.16;4964676;28;104752;-62
2023/04/03 07:29:36;;;;;;;4.93;4.53;;;;;;;4.54;100.00;96922.75;4947426;28;105014;-63
2023/04/03 07:32:03;;;;;;;5.20;4.70;;;;;;;4.69;100.00;96920.78;4934237;28;103643;-63
2023/04/03 07:37:53;;;;;;;5.30;4.80;;;;;;;4.76;100.00;96929.50;4933831;28;105814;-63
2023/04/03 07:40:20;;;;;;;5.20;4.80;;;;;;;4.85;100.00;96928.28;4933170;28;102602;-63
2023/04/03 07:42:47;;;;;;;5.67;4.73;;;;;;;4.71;100.00;96929.28;4935588;28;105175;-63
2023/04/03 07:45:17;;;;;;;6.63;4.50;;;;;;;4.93;100.00;96928.09;4946101;28;103516;-63
2023/04/03 07:47:44;;;;;;;5.03;4.63;;;;;;;4.95;100.00;96928.69;4931893;28;103501;-63
2023/04/03 07:50:11;;;;;;;10.23;5.63;;;;;;;5.06;100.00;96933.34;4933361;28;105040;-63
2023/04/03 07:52:39;;;;;;;5.63;4.33;;;;;;;5.13;100.00;96934.19;4935846;28;102024;-63
2023/04/03 07:55:06;;;;;;;4.37;3.97;;;;;;;4.89;100.00;96935.59;4935275;28;103753;-63
2023/04/03 07:57:33;;;;;;;4.60;4.20;;;;;;;5.18;100.00;96937.81;4935599;28;105910;-63
2023/04/03 08:00:00;;;;;;;4.90;4.50;;;;;;;5.05;100.00;96937.00;4960745;28;102165;-63
2023/04/03 08:02:28;;;;;;;4.57;4.13;;;;;;;5.13;100.00;96937.59;5028883;28;102379;-63
2023/04/03 08:05:06;;;;;;;5.07;4.57;;;;;;;5.05;100.00;96934.38;5015800;28;101963;-63
2023/04/03 08:07:33;;;;;;;4.53;4.13;;;;;;;5.20;100.00;96934.97;5011667;28;105107;-63
2023/04/03 08:10:01;;;;;;;6.37;4.57;;;;;;;5.18;100.00;96942.28;5014672;28;104172;-63
2023/04/03 08:12:29;;;;;;;4.20;3.90;;;;;;;5.11;100.00;96946.72;5022380;28;101896;-64
2023/04/03 08:14:58;;;;;;;4.77;4.37;;;;;;;5.15;100.00;96943.50;5029876;28;105024;-63
2023/04/03 08:17:28;;;;;;;4.33;3.97;;;;;;;5.24;100.00;96938.84;5012698;28;103854;-63
2023/04/03 08:19:55;;;;;;;4.17;3.87;;;;;;;5.19;100.00;96936.78;5021504;28;102391;-63
2023/04/03 08:22:22;;;;;;;3.93;3.63;;;;;;;5.07;100.00;96943.69;5024780;28;105695;-63
2023/04/03 08:25:01;;;;;;;4.27;3.87;;;;;;;5.00;100.00;96934.16;5014015;28;105052;-63
2023/04/03 08:27:29;;;;;;;4.77;3.97;;;;;;;5.10;100.00;96937.19;5011407;28;104751;-63
2023/04/03 08:29:57;;;;;;;4.53;4.03;;;;;;;5.22;100.00;96938.22;5010798;28;104435;-63
2023/04/03 08:32:24;;;;;;;3.90;3.60;;;;;;;5.06;100.00;96936.81;5023265;28;101938;-61
2023/04/03 08:35:11;;;;;;;4.07;3.70;;;;;;;4.89;100.00;96938.22;5021181;28;105383;-63
2023/04/03 08:37:40;;;;;;;4.60;4.20;;;;;;;5.31;100.00;96937.00;5016879;28;103029;-62
2023/04/03 08:40:13;;;;;;;3.83;3.53;;;;;;;5.27;100.00;96935.78;5030319;28;101989;-63
2023/04/03 08:42:52;;;;;;;3.93;3.60;;;;;;;5.11;100.00;96944.09;5028018;28;104834;-62
2023/04/03 08:45:28;;;;;;;185.43;18.90;;;;;;;5.60;100.00;96936.53;5015367;28;102552;-63
2023/04/03 08:48:05;;;;;;;38.50;8.10;;;;;;;5.86;100.00;96937.34;5019896;28;101845;-62
2023/04/03 08:50:40;;;;;;;4.37;3.97;;;;;;;5.76;100.00;96944.03;5021847;28;105587;-62
2023/04/03 08:53:28;;;;;;;5.50;3.60;;;;;;;5.89;100.00;96931.63;5013017;28;101888;-63
2023/04/03 08:55:57;;;;;;;145.17;13.60;;;;;;;5.93;100.00;96947.88;5029693;28;104745;-63
2023/04/03 08:58:27;;;;;;;801.27;66.97;;;;;;;6.06;100.00;96932.78;5012008;28;105251;-63
2023/04/03 09:00:59;;;;;;;7.00;4.63;;;;;;;6.13;100.00;96932.78;5010148;28;101813;-63
2023/04/03 09:04:06;;;;;;;4.33;3.93;;;;;;;6.44;100.00;96936.28;5010697;27;103639;-63
2023/04/03 09:06:34;;;;;;;10.97;4.53;;;;;;;6.63;100.00;96938.03;5029842;28;102901;-63
2023/04/03 09:09:13;;;;;;;4.43;4.03;;;;;;;6.45;100.00;96937.09;5030415;28;102065;-63
2023/04/03 09:11:52;;;;;;;3.90;3.60;;;;;;;6.34;100.00;96933.28;5033382;28;104720;-63
2023/04/03 09:18:14;;;;;;;3.90;3.47;;;;;;;6.71;100.00;96931.69;5021845;28;101970;-63
2023/04/03 09:20:50;;;;;;;3.77;3.43;;;;;;;6.86;100.00;96940.91;5031078;28;103125;-63
2023/04/03 09:23:29;;;;;;;3.97;3.67;;;;;;;6.78;100.00;96941.19;5016201;27;101834;-63
2023/04/03 09:26:03;;;;;;;3.70;3.40;;;;;;;7.08;100.00;96938.72;5027393;28;104739;-63
2023/04/03 09:28:35;;;;;;;4.83;3.90;;;;;;;6.75;100.00;96931.03;5029316;28;105866;-63
2023/04/03 09:31:11;;;;;;;3.73;3.43;;;;;;;6.51;100.00;96946.81;5022040;28;101994;-63
2023/04/03 09:33:46;;;;;;;4.10;3.80;;;;;;;6.57;100.00;96941.50;5011729;28;102327;-63
2023/04/03 09:36:14;;;;;;;3.80;3.50;;;;;;;6.95;100.00;96938.81;5021079;28;105969;-64
2023/04/03 09:38:42;;;;;;;4.97;3.63;;;;;;;7.40;100.00;96940.28;5012016;28;103937;-64
2023/04/03 09:41:17;;;;;;;3.47;3.17;;;;;;;7.20;100.00;96934.38;5019394;28;103988;-64
2023/04/03 09:44:00;;;;;;;3.30;3.10;;;;;;;7.13;100.00;96929.13;5019874;28;102116;-64
2023/04/03 09:46:30;;;;;;;4.13;3.30;;;;;;;7.12;100.00;96937.28;5009651;28;105303;-64
2023/04/03 09:48:59;;;;;;;4.37;3.43;;;;;;;7.07;100.00;96934.47;5015125;28;103082;-63
2023/04/03 09:51:28;;;;;;;3.30;3.10;;;;;;;6.88;100.00;96933.56;5018550;28;102477;-64
2023/04/03 09:58:26;;;;;;;3.27;2.90;;;;;;;7.27;100.00;96927.19;5025479;28;103311;-64
2023/04/03 10:00:58;;;;;;;5.07;3.70;;;;;;;7.57;100.00;96933.41;5034577;28;101665;-64
2023/04/03 10:03:46;;;;;;;25.57;5.63;;;;;;;7.60;100.00;96925.06;5010077;28;105427;-64
2023/04/03 10:06:26;;;;;;;4.70;4.30;;;;;;;7.34;100.00;96933.22;5009420;28;101964;-64
2023/04/03 10:09:00;;;;;;;4.00;3.70;;;;;;;6.42;100.00;96934.88;4992852;28;103142;-63
2023/04/03 10:11:27;;;;;;;3.90;3.40;;;;;;;6.24;100.00;96926.84;5051279;27;105511;-63
2023/04/03 10:14:30;;;;;;;5.20;3.53;;;;;;;6.39;100.00;96930.81;5009272;28;101865;-64
2023/04/03 10:17:11;;;;;;;4.87;4.20;;;;;;;6.44;100.00;96931.00;5011574;28;105442;-63
2023/04/03 10:19:43;;;;;;;3.90;3.60;;;;;;;6.33;100.00;96936.16;5009799;28;104909;-63
2023/04/03 10:22:21;;;;;;;4.30;3.87;;;;;;;6.31;100.00;96933.72;5033133;28;101975;-63
2023/04/03 10:25:31;;;;;;;3.17;2.90;;;;;;;6.24;100.00;96934.75;5024917;28;104961;-63
2023/04/03 10:28:01;;;;;;;3.97;3.67;;;;;;;6.53;100.00;96931.56;5012447;28;101849;-63
2023/04/03 10:30:48;;;;;;;3.83;3.53;;;;;;;6.83;100.00;96935.25;5029602;28;104800;-63
2023/04/03 10:33:39;;;;;;;3.60;3.33;;;;;;;7.02;100.00;96929.81;5026041;28;105065;-63
2023/04/03 10:36:17;;;;;;;3.33;3.07;;;;;;;6.85;100.00;96934.03;5029635;28;101875;-63
2023/04/03 10:38:55;;;;;;;3.50;3.20;;;;;;;6.56;100.00;96925.88;5020999;28;105152;-63
2023/04/03 10:41:30;;;;;;;3.23;2.93;;;;;;;6.30;100.00;96918.06;5012582;28;105064;-63
2023/04/03 10:44:32;;;;;;;3.30;3.10;;;;;;;6.73;100.00;96921.69;5018838;27;102206;-63
2023/04/03 10:47:06;;;;;;;3.60;3.03;;;;;;;6.68;100.00;96922.34;5013510;28;102869;-63
2023/04/03 10:49:47;;;;;;;2.90;2.70;;;;;;;7.07;100.00;96918.59;5009292;28;102201;-63
2023/04/03 10:52:21;;;;;;;3.53;3.23;;;;;;;7.11;100.00;96917.16;5011403;28;105302;-63
2023/04/03 10:55:33;;;;;;;3.23;2.93;;;;;;;7.38;100.00;96915.91;5056616;27;105217;-64
2023/04/03 10:58:01;;;;;;;2.93;2.60;;;;;;;7.32;100.00;96914.91;5027262;28;101969;-65
2023/04/03 11:00:38;;;;;;;2.83;2.53;;;;;;;7.28;100.00;96916.41;5008947;28;105073;-64
2023/04/03 11:03:43;;;;;;;2.40;2.20;;;;;;;7.62;100.00;96918.50;5009508;28;105430;-65
2023/04/03 11:06:15;;;;;;;2.77;2.57;;;;;;;7.55;100.00;96912.47;5009028;28;102014;-65
2023/04/03 11:08:46;;;;;;;2.93;2.73;;;;;;;7.69;100.00;96910.50;5008764;28;105279;-62
2023/04/03 11:11:17;;;;;;;2.60;2.40;;;;;;;7.43;100.00;96916.88;5011871;28;104903;-63
2023/04/03 11:14:25;;;;;;;2.00;1.90;;;;;;;7.46;100.00;96913.78;5008743;28;104763;-63
2023/04/03 11:17:14;;;;;;;1.87;1.77;;;;;;;7.33;100.00;96913.91;5018610;28;104262;-64
2023/04/03 11:19:49;;;;;;;2.00;1.90;;;;;;;7.43;100.00;96910.75;5014411;28;101845;-64
2023/04/03 11:22:26;;;;;;;2.60;2.40;;;;;;;6.94;100.00;96916.06;5008842;28;104823;-64
2023/04/03 11:25:11;;;;;;;2.90;2.60;;;;;;;6.88;100.00;96914.28;5007570;28;103995;-64
2023/04/03 11:27:46;;;;;;;2.87;2.67;;;;;;;7.09;100.00;96914.72;5009003;28;101871;-64
2023/04/03 11:30:20;;;;;;;3.50;3.20;;;;;;;6.72;100.00;96912.94;5016761;28;105615;-64
2023/04/03 11:33:12;;;;;;;5.80;4.10;;;;;;;6.66;100.00;96913.00;5031647;28;104879;-64
2023/04/03 11:35:44;;;;;;;4.27;3.87;;;;;;;5.71;100.00;96925.34;5029318;28;101851;-64
2023/04/03 11:38:22;;;;;;;3.73;3.43;;;;;;;5.50;100.00;96926.41;5009405;28;104959;-64
2023/04/03 11:40:50;;;;;;;3.43;3.13;;;;;;;5.54;100.00;96918.91;5012379;28;101884;-64
2023/04/03 11:43:57;;;;;;;2.93;2.70;;;;;;;5.45;100.00;96923.59;5013564;28;104988;-65
2023/04/03 11:46:44;;;;;;;3.20;3.00;;;;;;;5.50;100.00;96920.31;5025363;28;105748;-64
2023/04/03 11:49:52;;;;;;;3.13;2.93;;;;;;;5.60;100.00;96926.81;5011753;28;102143;-64
2023/04/03 11:52:52;;;;;;;4.30;2.70;;;;;;;5.52;100.00;96924.38;5011304;28;104946;-64
2023/04/03 11:55:59;;;;;;;3.90;3.17;;;;;;;5.90;100.00;96927.97;5025578;28;103840;-64
2023/04/03 11:58:29;;;;;;;2.60;2.40;;;;;;;6.14;100.00;96923.84;5032016;28;102002;-63
2023/04/03 12:01:00;;;;;;;3.37;2.90;;;;;;;6.19;100.00;96924.84;4994671;28;105152;-64
2023/04/03 12:04:02;;;;;;;4.13;3.50;;;;;;;6.15;100.00;96928.09;5004152;28;102181;-64
2023/04/03 12:07:24;;;;;;;3.47;3.17;;;;;;;5.46;100.00;96927.06;5013128;28;102908;-64
2023/04/03 12:10:00;;;;;;;3.40;3.10;;;;;;;5.47;100.00;96931.31;5011121;28;105352;-63
2023/04/03 12:12:57;;;;;;;8.40;3.70;;;;;;;5.33;100.00;96930.50;5011383;28;102083;-63
2023/04/03 12:15:49;;;;;;;4.87;3.70;;;;;;;5.36;100.00;96932.72;5047945;27;103809;-63
2023/04/03 12:18:40;;;;;;;85.03;10.23;;;;;;;5.25;100.00;96941.25;5030679;28;105000;-63
2023/04/03 12:21:07;;;;;;;3.60;3.00;;;;;;;4.90;100.00;96941.66;5021073;27;101965;-64
2023/04/03 12:24:28;;;;;;;3.70;3.07;;;;;;;5.21;100.00;96936.59;5011348;28;103677;-64
2023/04/03 12:27:06;;;;;;;3.17;2.97;;;;;;;4.95;100.00;96931.31;5016980;28;102793;-63